AXJ weather

Amakusa Airport
Kumamoto Prefecture, Japan

Public forecast

Using degrees Celsius for public forecast. Weather courtesy of forecast.io.

METAR (pilot weather report)

Report is more than 6 hours old.

Closest report is Nagasaki Airport, 28.9 nm (53.5 km) NNW. Retrieved 2019/09/16 12:00 UTC (8 hours ago):

RJFU 161200Z 01014KT 9999 FEW030 24/18 Q1007

TAF (pilot weather forecast)

Closest forecast is Nagasaki Airport, 28.9 nm (53.5 km) NNW. Retrieved 2019/09/16 18:00 UTC (2 hours ago):

TAF RJFU 161705Z 1618/1800 02009KT 9999 FEW030